Time,TemperatureF,DewpointF,PressureIn,WindDirection,WindDirectionDegrees,WindSpeedMPH,WindSpeedGustMPH,Humidity,HourlyPrecipIn,Conditions,Clouds,dailyrainin,SoftwareType,DateUTC
2013-12-21 00:01:00,45.1,39.7,29.98,SSE,168,0.0,0.9,81,0.00,,,0.00,meteobridge,2013-12-21 05:01:00,
2013-12-21 00:02:00,44.6,39.4,29.98,SSE,168,0.9,0.9,82,0.00,,,0.00,meteobridge,2013-12-21 05:02:00,
2013-12-21 00:03:00,44.4,39.2,29.98,SSE,168,0.0,0.9,82,0.00,,,0.00,meteobridge,2013-12-21 05:03:00,
2013-12-21 00:08:00,42.6,38.1,29.98,SSE,168,0.9,0.9,84,0.00,,,0.00,meteobridge,2013-12-21 05:08:00,
2013-12-21 00:13:00,41.7,37.8,29.98,South,188,0.0,0.9,86,0.00,,,0.00,meteobridge,2013-12-21 05:13:00,
2013-12-21 00:18:00,41.4,37.8,29.98,SW,219,0.0,2.9,87,0.00,,,0.00,meteobridge,2013-12-21 05:18:00,
2013-12-21 00:24:00,41.4,38.1,29.98,SSW,209,0.9,0.9,88,0.00,,,0.00,meteobridge,2013-12-21 05:24:00,
2013-12-21 00:29:00,41.7,38.5,29.97,South,191,0.0,0.9,88,0.00,,,0.00,meteobridge,2013-12-21 05:29:00,
2013-12-21 00:34:00,41.7,38.5,29.98,SW,234,0.9,0.9,88,0.00,,,0.00,meteobridge,2013-12-21 05:34:00,
2013-12-21 00:39:00,42.3,39.0,29.98,SW,234,0.9,2.0,88,0.00,,,0.00,meteobridge,2013-12-21 05:39:00,
2013-12-21 00:44:00,43.5,39.9,29.98,SSW,204,0.9,2.0,87,0.00,,,0.00,meteobridge,2013-12-21 05:44:00,
2013-12-21 00:49:00,43.7,39.7,29.98,SW,227,0.9,2.0,86,0.00,,,0.00,meteobridge,2013-12-21 05:49:00,
2013-12-21 00:54:00,43.7,39.6,29.97,SW,220,0.0,0.9,85,0.00,,,0.00,meteobridge,2013-12-21 05:54:00,
2013-12-21 00:59:00,43.0,39.4,29.98,SW,229,0.9,2.9,87,0.00,,,0.00,meteobridge,2013-12-21 05:59:00,
2013-12-21 01:05:00,42.6,39.4,29.98,West,261,0.0,0.9,88,0.00,,,0.00,meteobridge,2013-12-21 06:05:00,
2013-12-21 01:10:00,42.4,39.2,29.97,West,261,0.0,0.9,88,0.00,,,0.00,meteobridge,2013-12-21 06:10:00,
2013-12-21 01:15:00,42.8,39.6,29.97,SSW,207,0.9,2.0,88,0.00,,,0.00,meteobridge,2013-12-21 06:15:00,
2013-12-21 01:20:00,43.2,40.1,29.97,SW,217,0.0,0.9,89,0.00,,,0.00,meteobridge,2013-12-21 06:20:00,
2013-12-21 01:25:00,42.6,39.4,29.97,SSW,210,0.0,0.9,88,0.00,,,0.00,meteobridge,2013-12-21 06:25:00,
2013-12-21 01:30:00,42.1,39.0,29.97,SSW,210,0.0,0.0,89,0.00,,,0.00,meteobridge,2013-12-21 06:30:00,
2013-12-21 01:35:00,41.9,38.8,29.97,SSW,209,0.9,2.0,89,0.00,,,0.00,meteobridge,2013-12-21 06:35:00,
2013-12-21 01:37:00,41.7,38.7,29.97,SSW,209,0.0,0.9,89,0.00,,,0.00,meteobridge,2013-12-21 06:37:00,
2013-12-21 01:42:00,41.5,38.5,29.97,SSW,209,0.0,0.9,89,0.00,,,0.00,meteobridge,2013-12-21 06:42:00,
2013-12-21 01:47:00,41.5,39.2,29.97,SSW,209,0.9,0.9,91,0.00,,,0.00,meteobridge,2013-12-21 06:47:00,
2013-12-21 01:52:00,42.1,39.6,29.98,SSW,209,0.9,2.0,91,0.00,,,0.00,meteobridge,2013-12-21 06:52:00,
2013-12-21 01:57:00,42.3,39.6,29.98,SSW,209,0.9,0.9,90,0.00,,,0.00,meteobridge,2013-12-21 06:57:00,
2013-12-21 02:02:00,41.7,39.2,29.98,SSW,213,0.9,0.9,91,0.00,,,0.00,meteobridge,2013-12-21 07:02:00,
2013-12-21 02:07:00,41.5,39.2,29.98,WSW,238,0.0,4.0,91,0.00,,,0.00,meteobridge,2013-12-21 07:07:00,
2013-12-21 02:12:00,41.9,39.7,29.98,WSW,238,2.0,2.0,92,0.00,,,0.00,meteobridge,2013-12-21 07:12:00,
2013-12-21 02:17:00,42.4,40.3,29.98,SW,221,0.0,2.0,92,0.00,,,0.00,meteobridge,2013-12-21 07:17:00,
2013-12-21 02:23:00,42.6,40.1,29.98,SW,221,0.0,0.9,91,0.00,,,0.00,meteobridge,2013-12-21 07:23:00,
2013-12-21 02:28:00,42.4,40.3,29.99,SW,228,0.9,0.9,92,0.00,,,0.00,meteobridge,2013-12-21 07:28:00,
2013-12-21 02:33:00,42.1,39.9,29.98,WSW,258,0.0,2.0,92,0.00,,,0.00,meteobridge,2013-12-21 07:33:00,
2013-12-21 02:38:00,42.3,39.7,29.99,WSW,258,0.0,0.9,91,0.00,,,0.00,meteobridge,2013-12-21 07:38:00,
2013-12-21 06:15:00,43.9,41.7,29.97,West,279,2.9,2.9,92,0.00,,,0.00,meteobridge,2013-12-21 11:15:00,
2013-12-21 06:20:00,44.6,42.4,29.97,SSW,211,0.9,4.9,92,0.00,,,0.00,meteobridge,2013-12-21 11:20:00,
2013-12-21 06:25:00,44.8,42.1,29.97,WSW,248,0.9,2.0,90,0.00,,,0.00,meteobridge,2013-12-21 11:25:00,
2013-12-21 06:31:00,44.6,42.1,29.98,WSW,248,0.0,0.9,91,0.00,,,0.00,meteobridge,2013-12-21 11:31:00,
2013-12-21 06:36:00,43.7,41.2,29.98,WSW,248,0.0,2.0,91,0.00,,,0.00,meteobridge,2013-12-21 11:36:00,
2013-12-21 06:41:00,43.2,41.0,29.98,West,266,0.0,2.0,92,0.00,,,0.00,meteobridge,2013-12-21 11:41:00,
2013-12-21 06:46:00,43.0,41.2,29.98,West,277,2.0,2.0,93,0.00,,,0.00,meteobridge,2013-12-21 11:46:00,
2013-12-21 06:51:00,42.4,40.6,29.98,West,277,0.0,0.9,93,0.00,,,0.00,meteobridge,2013-12-21 11:51:00,
2013-12-21 06:56:00,43.0,41.4,29.98,West,277,0.9,0.9,94,0.00,,,0.00,meteobridge,2013-12-21 11:56:00,
2013-12-21 07:01:00,43.0,41.2,29.97,West,277,0.0,0.9,93,0.00,,,0.00,meteobridge,2013-12-21 12:01:00,
2013-12-21 07:06:00,42.3,40.5,29.98,NW,321,0.9,2.0,93,0.00,,,0.00,meteobridge,2013-12-21 12:06:00,
2013-12-21 07:11:00,42.1,40.5,29.98,West,265,0.0,2.0,94,0.00,,,0.00,meteobridge,2013-12-21 12:11:00,
2013-12-21 07:16:00,42.4,40.8,29.98,South,179,0.9,2.0,94,0.00,,,0.00,meteobridge,2013-12-21 12:16:00,
2013-12-21 07:21:00,42.3,40.5,29.98,SSE,150,0.0,0.9,93,0.00,,,0.00,meteobridge,2013-12-21 12:21:00,
2013-12-21 07:26:00,41.7,39.9,29.98,SSE,150,0.9,0.9,93,0.00,,,0.00,meteobridge,2013-12-21 12:26:00,
2013-12-21 07:31:00,41.4,39.7,29.98,West,275,0.0,0.9,94,0.00,,,0.00,meteobridge,2013-12-21 12:31:00,
2013-12-21 07:36:00,41.7,40.5,29.98,NNW,334,0.9,2.0,95,0.00,,,0.00,meteobridge,2013-12-21 12:36:00,
2013-12-21 07:41:00,42.1,40.8,29.98,North,349,0.0,2.0,95,0.00,,,0.00,meteobridge,2013-12-21 12:41:00,
2013-12-21 07:47:00,43.2,41.5,29.98,NNW,348,0.0,0.9,94,0.00,,,0.00,meteobridge,2013-12-21 12:47:00,
2013-12-21 07:52:00,43.9,41.9,29.98,NNW,348,0.9,2.0,93,0.00,,,0.00,meteobridge,2013-12-21 12:52:00,
2013-12-21 07:57:00,43.9,41.7,29.98,SE,136,2.9,2.9,92,0.00,,,0.00,meteobridge,2013-12-21 12:57:00,
2013-12-21 08:02:00,43.2,41.0,29.97,East,101,0.9,2.0,92,0.00,,,0.00,meteobridge,2013-12-21 13:02:00,
2013-12-21 08:07:00,43.7,41.5,29.97,East,90,0.9,2.0,92,0.00,,,0.00,meteobridge,2013-12-21 13:07:00,
2013-12-21 08:12:00,43.7,41.5,29.98,ENE,74,0.0,0.0,92,0.00,,,0.00,meteobridge,2013-12-21 13:12:00,
2013-12-21 08:17:00,43.7,41.7,29.98,NNE,22,0.9,2.0,93,0.00,,,0.00,meteobridge,2013-12-21 13:17:00,
2013-12-21 08:22:00,43.5,41.4,29.98,East,98,0.9,2.0,92,0.00,,,0.00,meteobridge,2013-12-21 13:22:00,
2013-12-21 08:28:00,44.1,41.9,29.98,NNE,28,0.0,0.9,92,0.00,,,0.00,meteobridge,2013-12-21 13:28:00,
2013-12-21 08:33:00,44.4,42.3,29.99,NW,307,0.9,0.9,92,0.00,,,0.00,meteobridge,2013-12-21 13:33:00,
2013-12-21 08:38:00,45.3,42.8,29.99,WSW,240,0.9,0.9,91,0.00,,,0.00,meteobridge,2013-12-21 13:38:00,
2013-12-21 08:43:00,45.9,43.3,29.99,WSW,240,0.0,0.9,91,0.00,,,0.00,meteobridge,2013-12-21 13:43:00,
2013-12-21 08:48:00,46.8,43.7,29.99,WNW,282,0.9,2.0,89,0.00,,,0.00,meteobridge,2013-12-21 13:48:00,
2013-12-21 08:53:00,47.1,44.1,29.99,West,262,0.9,2.9,89,0.00,,,0.00,meteobridge,2013-12-21 13:53:00,
2013-12-21 08:58:00,47.5,44.1,29.98,West,259,0.0,0.9,88,0.00,,,0.00,meteobridge,2013-12-21 13:58:00,
2013-12-21 09:03:00,47.8,44.4,29.98,South,186,0.0,0.9,88,0.00,,,0.00,meteobridge,2013-12-21 14:03:00,
2013-12-21 09:08:00,48.4,44.8,29.99,South,169,0.9,2.0,87,0.00,,,0.00,meteobridge,2013-12-21 14:08:00,
2013-12-21 09:13:00,48.4,44.4,29.98,South,176,2.0,4.9,86,0.00,,,0.00,meteobridge,2013-12-21 14:13:00,
2013-12-21 09:18:00,48.2,44.2,29.98,SSE,153,2.9,4.9,86,0.00,,,0.00,meteobridge,2013-12-21 14:18:00,
2013-12-21 09:23:00,47.8,44.2,29.99,South,186,0.9,2.9,87,0.00,,,0.00,meteobridge,2013-12-21 14:23:00,
2013-12-21 09:29:00,48.0,44.4,29.99,SSW,193,2.0,4.0,87,0.00,,,0.00,meteobridge,2013-12-21 14:29:00,
2013-12-21 09:34:00,48.4,44.4,29.98,SSW,195,2.0,4.9,86,0.00,,,0.00,meteobridge,2013-12-21 14:34:00,
2013-12-21 09:39:00,48.7,44.8,29.99,SSW,210,2.9,2.9,86,0.00,,,0.00,meteobridge,2013-12-21 14:39:00,
2013-12-21 09:44:00,49.6,45.3,29.98,SSE,157,2.0,4.9,85,0.00,,,0.00,meteobridge,2013-12-21 14:44:00,
2013-12-21 09:49:00,50.0,45.3,29.98,South,182,2.0,4.9,84,0.00,,,0.00,meteobridge,2013-12-21 14:49:00,
2013-12-21 09:54:00,50.4,45.7,29.98,SW,225,2.9,4.0,84,0.00,,,0.00,meteobridge,2013-12-21 14:54:00,
2013-12-21 09:59:00,50.5,45.5,29.99,SW,224,2.0,4.9,83,0.00,,,0.00,meteobridge,2013-12-21 14:59:00,
2013-12-21 10:04:00,50.5,45.5,29.99,SSW,207,2.0,4.0,83,0.00,,,0.00,meteobridge,2013-12-21 15:04:00,
2013-12-21 10:09:00,51.4,46.4,29.99,WSW,252,2.0,2.9,83,0.00,,,0.00,meteobridge,2013-12-21 15:09:00,
2013-12-21 10:14:00,51.8,46.4,29.98,SSW,211,2.9,2.9,82,0.00,,,0.00,meteobridge,2013-12-21 15:14:00,
2013-12-21 10:19:00,52.3,46.8,29.98,SSW,208,2.0,2.0,81,0.00,,,0.00,meteobridge,2013-12-21 15:19:00,
2013-12-21 10:24:00,52.9,46.9,29.98,SSE,165,0.0,4.9,80,0.00,,,0.00,meteobridge,2013-12-21 15:24:00,
2013-12-21 10:29:00,53.2,47.3,29.97,SSW,208,2.9,6.9,80,0.00,,,0.00,meteobridge,2013-12-21 15:29:00,
2013-12-21 10:34:00,53.2,47.3,29.97,SE,144,2.9,6.0,80,0.00,,,0.00,meteobridge,2013-12-21 15:34:00,
2013-12-21 10:39:00,53.6,47.3,29.97,SSW,196,4.0,8.9,79,0.00,,,0.00,meteobridge,2013-12-21 15:39:00,
2013-12-21 10:44:00,54.1,47.8,29.96,SE,134,2.9,4.0,79,0.00,,,0.00,meteobridge,2013-12-21 15:44:00,
2013-12-21 10:49:00,54.3,47.7,29.96,SSE,157,2.0,4.9,78,0.00,,,0.00,meteobridge,2013-12-21 15:49:00,
2013-12-21 10:54:00,54.9,47.8,29.96,South,169,4.0,10.1,77,0.00,,,0.00,meteobridge,2013-12-21 15:54:00,
2013-12-21 10:59:00,55.0,48.0,29.95,SE,140,0.9,4.0,77,0.00,,,0.00,meteobridge,2013-12-21 15:59:00,
2013-12-21 11:04:00,55.0,48.4,29.95,West,261,0.9,4.0,78,0.00,,,0.00,meteobridge,2013-12-21 16:04:00,
2013-12-21 11:09:00,55.8,48.7,29.95,South,190,0.0,2.9,77,0.00,,,0.00,meteobridge,2013-12-21 16:09:00,
2013-12-21 11:14:00,56.3,48.9,29.95,SSW,193,2.9,6.0,76,0.00,,,0.00,meteobridge,2013-12-21 16:14:00,
2013-12-21 11:19:00,56.3,48.9,29.95,NW,310,0.9,8.1,76,0.00,,,0.00,meteobridge,2013-12-21 16:19:00,
2013-12-21 11:25:00,56.5,48.9,29.95,SW,225,6.9,6.9,76,0.00,,,0.00,meteobridge,2013-12-21 16:25:00,
2013-12-21 11:30:00,57.0,49.5,29.94,NW,313,0.9,2.0,76,0.00,,,0.00,meteobridge,2013-12-21 16:30:00,
2013-12-21 11:35:00,56.7,49.1,29.95,SW,220,6.0,6.0,76,0.00,,,0.00,meteobridge,2013-12-21 16:35:00,
2013-12-21 11:40:00,56.7,49.5,29.94,SSE,153,2.0,2.0,77,0.00,,,0.00,meteobridge,2013-12-21 16:40:00,
2013-12-21 11:45:00,57.0,49.5,29.94,SW,228,2.9,2.9,76,0.00,,,0.00,meteobridge,2013-12-21 16:45:00,
2013-12-21 11:50:00,56.8,49.6,29.93,SSW,209,2.0,4.0,77,0.00,,,0.00,meteobridge,2013-12-21 16:50:00,
2013-12-21 11:55:00,57.0,49.8,29.93,South,184,4.9,12.1,77,0.00,,,0.00,meteobridge,2013-12-21 16:55:00,
2013-12-21 12:00:00,57.4,49.8,29.93,SE,141,4.9,6.9,76,0.00,,,0.00,meteobridge,2013-12-21 17:00:00,
2013-12-21 12:05:00,57.7,50.2,29.93,SE,143,6.0,8.1,76,0.00,,,0.00,meteobridge,2013-12-21 17:05:00,
2013-12-21 12:10:00,57.7,50.2,29.92,South,172,4.9,8.9,76,0.00,,,0.00,meteobridge,2013-12-21 17:10:00,
2013-12-21 12:15:00,57.9,50.4,29.92,SSW,211,4.9,6.0,76,0.00,,,0.00,meteobridge,2013-12-21 17:15:00,
2013-12-21 12:20:00,58.3,50.7,29.92,SW,219,4.0,4.9,76,0.00,,,0.00,meteobridge,2013-12-21 17:20:00,
2013-12-21 12:25:00,58.6,50.7,29.92,SSW,200,4.0,4.0,75,0.00,,,0.00,meteobridge,2013-12-21 17:25:00,
2013-12-21 12:30:00,58.8,50.9,29.91,SSE,159,8.9,8.9,75,0.00,,,0.00,meteobridge,2013-12-21 17:30:00,
2013-12-21 12:35:00,59.0,51.1,29.91,SSW,205,4.0,11.0,75,0.00,,,0.00,meteobridge,2013-12-21 17:35:00,
2013-12-21 12:40:00,59.2,51.3,29.91,SSE,156,6.0,6.0,75,0.00,,,0.00,meteobridge,2013-12-21 17:40:00,
2013-12-21 12:45:00,59.4,51.4,29.91,SSE,163,6.0,6.0,75,0.00,,,0.00,meteobridge,2013-12-21 17:45:00,
2013-12-21 12:50:00,59.5,51.6,29.91,SSE,155,6.0,6.9,75,0.00,,,0.00,meteobridge,2013-12-21 17:50:00,
2013-12-21 12:55:00,59.5,51.6,29.91,SW,223,4.0,6.0,75,0.00,,,0.00,meteobridge,2013-12-21 17:55:00,
2013-12-21 13:00:00,59.4,51.4,29.91,SW,234,6.0,8.9,75,0.00,,,0.00,meteobridge,2013-12-21 18:00:00,
2013-12-21 13:05:00,59.2,51.3,29.91,SW,229,4.0,6.9,75,0.00,,,0.00,meteobridge,2013-12-21 18:05:00,
2013-12-21 13:10:00,58.8,51.3,29.91,West,269,6.0,6.0,76,0.00,,,0.00,meteobridge,2013-12-21 18:10:00,
2013-12-21 13:15:00,59.2,51.6,29.91,SW,234,8.9,8.9,76,0.00,,,0.00,meteobridge,2013-12-21 18:15:00,
2013-12-21 13:21:00,59.2,51.6,29.90,SSW,192,2.0,8.9,76,0.00,,,0.00,meteobridge,2013-12-21 18:21:00,
2013-12-21 13:26:00,59.4,51.8,29.89,SSE,148,0.9,4.9,76,0.00,,,0.00,meteobridge,2013-12-21 18:26:00,
2013-12-21 13:31:00,60.1,52.5,29.89,SE,142,4.9,4.9,76,0.00,,,0.00,meteobridge,2013-12-21 18:31:00,
2013-12-21 13:36:00,59.5,52.0,29.89,SW,215,2.9,2.9,76,0.00,,,0.00,meteobridge,2013-12-21 18:36:00,
2013-12-21 13:41:00,59.7,52.5,29.88,SE,140,2.0,2.9,77,0.00,,,0.00,meteobridge,2013-12-21 18:41:00,
2013-12-21 13:46:00,60.3,52.7,29.89,SSE,157,2.9,10.1,76,0.00,,,0.00,meteobridge,2013-12-21 18:46:00,
2013-12-21 13:51:00,60.4,52.9,29.89,South,175,2.9,6.9,76,0.00,,,0.00,meteobridge,2013-12-21 18:51:00,
2013-12-21 13:56:00,61.2,53.2,29.89,SSE,167,2.9,4.9,75,0.00,,,0.00,meteobridge,2013-12-21 18:56:00,
2013-12-21 14:01:00,61.2,53.2,29.89,South,184,2.0,8.9,75,0.00,,,0.00,meteobridge,2013-12-21 19:01:00,
2013-12-21 14:06:00,61.5,53.6,29.89,SE,144,4.0,6.0,75,0.00,,,0.00,meteobridge,2013-12-21 19:06:00,
2013-12-21 14:11:00,61.3,53.4,29.89,SSE,167,6.0,8.9,75,0.00,,,0.00,meteobridge,2013-12-21 19:11:00,
2013-12-21 14:16:00,61.3,53.4,29.89,SSW,205,4.0,8.9,75,0.00,,,0.00,meteobridge,2013-12-21 19:16:00,
2013-12-21 14:21:00,61.3,53.4,29.89,SSW,198,2.0,4.0,75,0.00,,,0.00,meteobridge,2013-12-21 19:21:00,
2013-12-21 14:26:00,61.3,53.4,29.89,South,182,0.9,4.9,75,0.00,,,0.00,meteobridge,2013-12-21 19:26:00,
2013-12-21 14:31:00,61.5,53.2,29.89,SW,227,2.0,2.9,74,0.00,,,0.00,meteobridge,2013-12-21 19:31:00,
2013-12-21 14:37:00,62.1,53.6,29.89,SSE,162,0.9,2.0,74,0.00,,,0.00,meteobridge,2013-12-21 19:37:00,
2013-12-21 14:42:00,62.1,53.6,29.89,SSE,155,2.9,4.0,74,0.00,,,0.00,meteobridge,2013-12-21 19:42:00,
2013-12-21 14:47:00,62.1,53.6,29.88,SSE,163,2.0,4.9,74,0.00,,,0.00,meteobridge,2013-12-21 19:47:00,
2013-12-21 14:52:00,62.1,53.6,29.88,South,186,2.0,2.9,74,0.00,,,0.00,meteobridge,2013-12-21 19:52:00,
2013-12-21 14:57:00,61.9,53.4,29.88,SE,140,2.9,4.0,74,0.00,,,0.00,meteobridge,2013-12-21 19:57:00,
2013-12-21 15:02:00,61.9,53.4,29.90,SSW,204,2.0,4.0,74,0.00,,,0.00,meteobridge,2013-12-21 20:02:00,
2013-12-21 15:07:00,62.1,53.6,29.90,SSE,156,2.9,6.0,74,0.00,,,0.00,meteobridge,2013-12-21 20:07:00,
2013-12-21 15:12:00,61.7,53.2,29.91,SW,234,2.9,4.9,74,0.00,,,0.00,meteobridge,2013-12-21 20:12:00,
2013-12-21 15:17:00,61.9,53.4,29.91,SSW,207,2.9,4.0,74,0.00,,,0.00,meteobridge,2013-12-21 20:17:00,
2013-12-21 15:22:00,62.1,53.6,29.91,South,176,6.9,11.0,74,0.00,,,0.00,meteobridge,2013-12-21 20:22:00,
2013-12-21 15:27:00,61.9,53.4,29.91,SSE,153,4.0,6.9,74,0.00,,,0.00,meteobridge,2013-12-21 20:27:00,
2013-12-21 15:32:00,61.3,53.1,29.90,SSE,159,4.9,6.9,74,0.00,,,0.00,meteobridge,2013-12-21 20:32:00,
2013-12-21 15:37:00,61.3,53.4,29.91,SSE,152,0.9,6.9,75,0.00,,,0.00,meteobridge,2013-12-21 20:37:00,
2013-12-21 15:42:00,61.3,53.4,29.90,SSE,168,4.0,4.0,75,0.00,,,0.00,meteobridge,2013-12-21 20:42:00,
2013-12-21 15:47:00,61.3,53.4,29.90,SSW,212,0.9,2.9,75,0.00,,,0.00,meteobridge,2013-12-21 20:47:00,
2013-12-21 15:52:00,61.3,53.4,29.90,South,180,0.9,4.9,75,0.00,,,0.00,meteobridge,2013-12-21 20:52:00,
2013-12-21 15:57:00,61.3,53.4,29.90,SSW,192,0.9,4.0,75,0.00,,,0.00,meteobridge,2013-12-21 20:57:00,
2013-12-21 16:02:00,60.6,53.1,29.90,SSW,202,0.0,0.0,76,0.00,,,0.00,meteobridge,2013-12-21 21:02:00,
2013-12-21 16:07:00,60.4,52.9,29.90,SSE,158,0.9,2.0,76,0.00,,,0.00,meteobridge,2013-12-21 21:07:00,
2013-12-21 16:12:00,60.1,52.9,29.90,South,173,2.0,4.0,77,0.00,,,0.00,meteobridge,2013-12-21 21:12:00,
2013-12-21 16:17:00,59.9,52.7,29.91,SE,143,0.9,4.9,77,0.00,,,0.00,meteobridge,2013-12-21 21:17:00,
2013-12-21 16:22:00,59.2,52.3,29.91,South,180,2.9,2.9,78,0.00,,,0.00,meteobridge,2013-12-21 21:22:00,
2013-12-21 16:28:00,59.4,52.9,29.91,South,171,2.0,2.0,79,0.00,,,0.00,meteobridge,2013-12-21 21:28:00,
2013-12-21 16:33:00,59.4,52.5,29.91,SSE,159,4.0,4.0,78,0.00,,,0.00,meteobridge,2013-12-21 21:33:00,
2013-12-21 16:38:00,58.8,52.7,29.91,SSE,151,2.9,4.9,80,0.00,,,0.00,meteobridge,2013-12-21 21:38:00,
2013-12-21 16:43:00,59.2,52.7,29.91,SSE,153,2.9,4.0,79,0.00,,,0.00,meteobridge,2013-12-21 21:43:00,
2013-12-21 16:48:00,58.6,52.2,29.91,SSE,157,2.9,4.9,79,0.00,,,0.00,meteobridge,2013-12-21 21:48:00,
2013-12-21 16:53:00,57.7,51.6,29.91,SE,145,0.0,0.9,80,0.00,,,0.00,meteobridge,2013-12-21 21:53:00,
2013-12-21 16:59:00,56.8,51.4,29.91,SSE,148,0.0,0.9,82,0.00,,,0.00,meteobridge,2013-12-21 21:59:00,
2013-12-21 17:04:00,56.5,51.4,29.91,SSE,148,0.9,0.9,83,0.00,,,0.00,meteobridge,2013-12-21 22:04:00,
2013-12-21 17:09:00,56.5,51.6,29.92,SSE,153,0.0,2.0,84,0.00,,,0.00,meteobridge,2013-12-21 22:09:00,
2013-12-21 17:14:00,55.2,50.2,29.91,SSE,148,0.9,2.0,83,0.00,,,0.00,meteobridge,2013-12-21 22:14:00,
2013-12-21 17:19:00,54.9,50.4,29.91,SE,132,2.9,2.9,85,0.00,,,0.00,meteobridge,2013-12-21 22:19:00,
2013-12-21 17:24:00,55.2,51.1,29.90,SSE,166,4.0,6.9,86,0.00,,,0.00,meteobridge,2013-12-21 22:24:00,
2013-12-21 17:29:00,56.7,52.2,29.90,SSE,156,2.0,4.9,85,0.00,,,0.00,meteobridge,2013-12-21 22:29:00,
2013-12-21 17:34:00,57.7,52.7,29.90,SE,130,4.0,8.9,83,0.00,,,0.00,meteobridge,2013-12-21 22:34:00,
2013-12-21 17:39:00,58.5,53.1,29.91,South,182,2.0,4.9,82,0.00,,,0.00,meteobridge,2013-12-21 22:39:00,
2013-12-21 17:44:00,58.3,52.5,29.92,South,182,0.0,4.9,81,0.00,,,0.00,meteobridge,2013-12-21 22:44:00,
2013-12-21 17:49:00,58.3,52.5,29.91,South,178,2.0,4.9,81,0.00,,,0.00,meteobridge,2013-12-21 22:49:00,
2013-12-21 17:55:00,58.5,52.7,29.91,South,175,2.0,6.9,81,0.00,,,0.00,meteobridge,2013-12-21 22:55:00,
2013-12-21 18:00:00,58.3,52.5,29.91,SSE,159,2.0,4.9,81,0.00,,,0.00,meteobridge,2013-12-21 23:00:00,
2013-12-21 18:05:00,58.1,52.7,29.92,South,180,2.0,4.0,82,0.00,,,0.00,meteobridge,2013-12-21 23:05:00,
2013-12-21 18:10:00,57.9,52.5,29.91,SSE,165,2.0,2.9,82,0.00,,,0.00,meteobridge,2013-12-21 23:10:00,
2013-12-21 18:15:00,57.7,52.3,29.91,SE,142,2.0,4.0,82,0.00,,,0.00,meteobridge,2013-12-21 23:15:00,
2013-12-21 18:20:00,57.2,52.2,29.91,SE,144,0.9,2.0,83,0.00,,,0.00,meteobridge,2013-12-21 23:20:00,
2013-12-21 18:26:00,56.7,51.8,29.92,SE,138,2.9,4.0,84,0.00,,,0.00,meteobridge,2013-12-21 23:26:00,
2013-12-21 18:31:00,57.0,52.2,29.92,SSE,155,2.9,4.0,84,0.00,,,0.00,meteobridge,2013-12-21 23:31:00,
2013-12-21 18:36:00,56.8,52.0,29.92,SE,143,0.9,2.9,84,0.00,,,0.00,meteobridge,2013-12-21 23:36:00,
2013-12-21 18:41:00,56.8,52.0,29.91,SE,134,2.0,2.0,84,0.00,,,0.00,meteobridge,2013-12-21 23:41:00,
2013-12-21 18:46:00,55.9,51.8,29.92,SSE,161,2.0,2.9,86,0.00,,,0.00,meteobridge,2013-12-21 23:46:00,
2013-12-21 18:51:00,54.9,50.7,29.91,ESE,111,0.9,2.0,86,0.00,,,0.00,meteobridge,2013-12-21 23:51:00,
2013-12-21 18:56:00,54.5,51.1,29.92,ESE,121,0.0,2.0,88,0.00,,,0.00,meteobridge,2013-12-21 23:56:00,
2013-12-21 19:01:00,54.1,50.7,29.92,East,99,0.0,0.9,88,0.00,,,0.00,meteobridge,2013-12-22 00:01:00,
2013-12-21 19:06:00,53.8,50.5,29.92,ESE,103,0.9,0.9,89,0.00,,,0.00,meteobridge,2013-12-22 00:06:00,
2013-12-21 19:11:00,53.2,50.0,29.92,ESE,122,2.0,2.0,89,0.00,,,0.00,meteobridge,2013-12-22 00:11:00,
2013-12-21 19:16:00,53.2,50.4,29.92,ESE,114,2.0,2.0,90,0.00,,,0.00,meteobridge,2013-12-22 00:16:00,
2013-12-21 19:21:00,53.1,50.2,29.91,ESE,121,2.9,2.9,90,0.00,,,0.00,meteobridge,2013-12-22 00:21:00,
2013-12-21 19:26:00,53.2,50.7,29.91,SE,132,2.0,2.9,91,0.00,,,0.00,meteobridge,2013-12-22 00:26:00,
2013-12-21 19:31:00,54.0,51.4,29.91,SE,138,2.9,4.9,91,0.00,,,0.00,meteobridge,2013-12-22 00:31:00,
2013-12-21 19:36:00,54.7,51.4,29.91,SSE,153,2.9,4.0,89,0.00,,,0.00,meteobridge,2013-12-22 00:36:00,
2013-12-21 19:42:00,55.6,52.3,29.91,SE,130,2.9,4.9,89,0.00,,,0.00,meteobridge,2013-12-22 00:42:00,
2013-12-21 19:47:00,56.1,52.7,29.91,SSW,194,0.9,4.9,88,0.00,,,0.00,meteobridge,2013-12-22 00:47:00,
2013-12-21 19:52:00,56.5,52.7,29.92,SSW,209,2.0,6.0,87,0.00,,,0.00,meteobridge,2013-12-22 00:52:00,
2013-12-21 19:57:00,56.5,52.7,29.91,SSE,165,2.0,4.0,87,0.00,,,0.00,meteobridge,2013-12-22 00:57:00,
2013-12-21 20:02:00,56.1,52.3,29.91,South,178,4.0,4.0,87,0.00,,,0.00,meteobridge,2013-12-22 01:02:00,
2013-12-21 20:07:00,56.5,52.7,29.91,South,180,4.0,6.9,87,0.00,,,0.00,meteobridge,2013-12-22 01:07:00,
2013-12-21 20:12:00,56.7,52.9,29.91,SSE,168,6.9,8.1,87,0.00,,,0.00,meteobridge,2013-12-22 01:12:00,
2013-12-21 20:17:00,56.8,53.1,29.91,South,174,2.9,4.9,87,0.00,,,0.00,meteobridge,2013-12-22 01:17:00,
2013-12-21 20:22:00,56.8,53.1,29.91,SSE,164,6.0,6.9,87,0.00,,,0.00,meteobridge,2013-12-22 01:22:00,
2013-12-21 20:27:00,56.7,52.9,29.91,South,183,2.0,8.1,87,0.00,,,0.00,meteobridge,2013-12-22 01:27:00,
2013-12-21 20:32:00,56.8,52.7,29.91,SE,132,2.0,4.0,86,0.00,,,0.00,meteobridge,2013-12-22 01:32:00,
2013-12-21 20:37:00,56.8,53.1,29.91,South,176,2.0,8.9,87,0.00,,,0.00,meteobridge,2013-12-22 01:37:00,
2013-12-21 20:42:00,56.8,53.1,29.91,SW,228,6.9,8.1,87,0.00,,,0.00,meteobridge,2013-12-22 01:42:00,
2013-12-21 20:47:00,57.0,53.2,29.91,South,169,6.0,6.9,87,0.00,,,0.00,meteobridge,2013-12-22 01:47:00,
2013-12-21 20:53:00,57.0,53.2,29.91,WSW,238,0.9,8.1,87,0.00,,,0.00,meteobridge,2013-12-22 01:53:00,
2013-12-21 20:58:00,57.0,53.2,29.91,SSE,164,4.0,6.9,87,0.00,,,0.00,meteobridge,2013-12-22 01:58:00,
2013-12-21 21:03:00,57.4,53.8,29.90,SSW,207,4.0,6.0,88,0.00,,,0.00,meteobridge,2013-12-22 02:03:00,
2013-12-21 21:08:00,57.4,53.6,29.90,South,171,4.9,6.9,87,0.00,,,0.00,meteobridge,2013-12-22 02:08:00,
2013-12-21 21:13:00,57.4,53.8,29.90,SSE,165,4.0,6.0,88,0.00,,,0.00,meteobridge,2013-12-22 02:13:00,
2013-12-21 21:18:00,57.6,53.8,29.90,SW,221,6.9,8.1,87,0.00,,,0.00,meteobridge,2013-12-22 02:18:00,
2013-12-21 21:23:00,57.7,54.0,29.90,South,175,8.9,8.9,87,0.00,,,0.00,meteobridge,2013-12-22 02:23:00,
2013-12-21 21:28:00,57.9,54.1,29.90,South,175,4.0,6.0,87,0.00,,,0.00,meteobridge,2013-12-22 02:28:00,
2013-12-21 21:33:00,57.9,54.1,29.90,South,182,2.0,4.9,87,0.00,,,0.00,meteobridge,2013-12-22 02:33:00,
2013-12-21 21:38:00,58.3,54.5,29.90,SSE,159,6.9,10.1,87,0.00,,,0.00,meteobridge,2013-12-22 02:38:00,
2013-12-21 21:43:00,58.5,54.7,29.90,SSW,197,4.0,8.1,87,0.00,,,0.00,meteobridge,2013-12-22 02:43:00,
2013-12-21 21:48:00,58.6,54.5,29.91,SSE,158,2.9,8.1,86,0.00,,,0.00,meteobridge,2013-12-22 02:48:00,
2013-12-21 21:53:00,58.8,55.0,29.90,South,169,8.9,8.9,87,0.00,,,0.00,meteobridge,2013-12-22 02:53:00,
2013-12-21 21:58:00,58.6,54.9,29.91,SW,224,6.0,11.0,87,0.00,,,0.00,meteobridge,2013-12-22 02:58:00,
2013-12-21 22:03:00,58.8,55.0,29.91,SW,221,6.9,11.0,87,0.00,,,0.00,meteobridge,2013-12-22 03:03:00,
2013-12-21 22:08:00,58.8,55.0,29.91,SW,222,4.0,12.1,87,0.00,,,0.00,meteobridge,2013-12-22 03:08:00,
2013-12-21 22:13:00,58.8,54.7,29.91,South,187,6.0,15.0,86,0.00,,,0.00,meteobridge,2013-12-22 03:13:00,
2013-12-21 22:18:00,58.8,55.0,29.90,South,173,2.9,12.1,87,0.00,,,0.00,meteobridge,2013-12-22 03:18:00,
2013-12-21 22:23:00,58.8,55.0,29.90,South,177,8.9,15.0,87,0.00,,,0.00,meteobridge,2013-12-22 03:23:00,
2013-12-21 22:28:00,58.8,55.0,29.90,SSW,211,6.0,11.0,87,0.00,,,0.00,meteobridge,2013-12-22 03:28:00,
2013-12-21 22:33:00,58.8,55.0,29.90,SE,136,6.9,8.9,87,0.00,,,0.00,meteobridge,2013-12-22 03:33:00,
2013-12-21 22:38:00,58.8,55.0,29.90,SSE,153,6.9,12.1,87,0.00,,,0.00,meteobridge,2013-12-22 03:38:00,
2013-12-21 22:43:00,59.0,55.4,29.90,SSE,157,14.1,14.1,88,0.00,,,0.00,meteobridge,2013-12-22 03:43:00,
2013-12-21 22:48:00,59.2,55.4,29.90,SW,225,6.9,11.0,87,0.00,,,0.00,meteobridge,2013-12-22 03:48:00,
2013-12-21 22:53:00,59.2,55.6,29.90,SE,144,4.9,6.0,88,0.00,,,0.00,meteobridge,2013-12-22 03:53:00,
2013-12-21 22:58:00,59.2,55.6,29.90,South,175,6.0,10.1,88,0.00,,,0.00,meteobridge,2013-12-22 03:58:00,
2013-12-21 23:04:00,59.2,55.6,29.90,SSE,162,4.9,11.0,88,0.00,,,0.00,meteobridge,2013-12-22 04:04:00,
2013-12-21 23:09:00,59.2,55.6,29.90,SSW,211,4.0,8.1,88,0.00,,,0.00,meteobridge,2013-12-22 04:09:00,
2013-12-21 23:14:00,59.2,55.6,29.90,SSW,198,4.9,14.1,88,0.00,,,0.00,meteobridge,2013-12-22 04:14:00,
2013-12-21 23:19:00,59.4,55.8,29.89,WSW,242,4.0,15.0,88,0.00,,,0.00,meteobridge,2013-12-22 04:19:00,
2013-12-21 23:24:00,59.4,55.8,29.89,SSE,158,6.0,8.1,88,0.00,,,0.00,meteobridge,2013-12-22 04:24:00,
2013-12-21 23:29:00,59.4,55.8,29.89,SE,128,2.9,11.0,88,0.00,,,0.00,meteobridge,2013-12-22 04:29:00,
2013-12-21 23:34:00,59.2,55.6,29.89,SSW,210,2.9,14.1,88,0.00,,,0.00,meteobridge,2013-12-22 04:34:00,
2013-12-21 23:39:00,59.2,55.6,29.89,SE,142,4.0,6.0,88,0.00,,,0.00,meteobridge,2013-12-22 04:39:00,
2013-12-21 23:44:00,59.0,55.8,29.88,SSE,151,2.9,12.1,89,0.00,,,0.00,meteobridge,2013-12-22 04:44:00,
2013-12-21 23:49:00,58.8,55.6,29.88,SSE,161,6.0,8.9,89,0.00,,,0.00,meteobridge,2013-12-22 04:49:00,
2013-12-21 23:54:00,59.0,55.8,29.88,SSE,165,6.9,14.1,89,0.00,,,0.00,meteobridge,2013-12-22 04:54:00,
2013-12-21 23:59:00,59.2,55.9,29.87,SSE,150,4.0,8.1,89,0.00,,,0.00,meteobridge,2013-12-22 04:59:00,